메인 페이지
METAR-TAF:

METAR-TAF

공항 :

Southwest Minnesota Regional Airport (Marshall/Ryan Field)

마샬, 미네소타, 미국

위도: 44-27N, 경도: 095-49W, 고도: 359m

현재 날씨관측

예보는 10분 전, 01:56시(UTC)에 발표되었습니다.
서남서13kt
온도 13°C
습도 88%
기압 1006 hPa
시정: 16.1km
고도 4000ft 상공 흐림

METAR: KMML 230156Z AUTO 25013KT 10SM OVC040 13/11 A2971 RMK AO2 SLP066 T01280106

시각: 21:06 (02:06 UTC)


TAF: 누락

4,000개 이상의 공항 관측 자료 및 예보 (METAR 및 TAF 보고).

지도상에서 검색 가능한 기상관측소가 노란 점과 빨간 점으로 표시되어 있습니다.

기상관측소 명을 보려면 표시 위로 마우스를 이동하세요.

날씨 관측과 예보를 보려면 클릭하세요.

지도 변경 : 확대하려면 엑스 표시가 있는 녹색 버튼, 축소하려면 빼기 표시가 있는 녹색 버튼, 다음 페이지의 지도를 보려면 녹색 화살표를 클릭하세요.


METAR-TAF: